Airfield :
LOGIN :

Register | Disclaimer

   EN    FR    IT 

 










Legend :    VFR   Marginal VFR   IFR   Intensive IFR   Very Intensive IFR
Visi :
Ceiling :
>= 8 km
>= 3000ft
5 to 8 km
1000 to 3000 ft
1500m to 5 km
500 to 1000 ft
800 to 1500m
200 to 500 ft
< 800m
< 200 ft
Symbols :   Thunderstorms  Fog  Heavy snow  Heavy precipitations  Wind > 20 kt
SIGMETs :     Misc.  Thunderstorms  Icing  Turbulence  Mountain Waves  Volcanic Ashes






- Airport Elevation : 314 ft
- IATA code : OTP


LROP - Bucarest - Henri Coanda

CURRENT METAR :
  • 200400Z 09008KT 2500 BR BKN002 OVC003 13/13 Q1022 R88/19//95 NOSIG

EXPIRED METARs :
  • 200330Z 09007KT 1800 BR BKN001 OVC002 13/13 Q1023 R88/19//95 NOSIG
  • 200300Z 08006KT 1500 BKN001 OVC002 13/13 Q1023 R88/19//95 TEMPO 0600 FG
  • 200230Z 08006KT 1500 BR SCT001 OVC002 13/13 Q1023 R88/19//95 TEMPO 0600 FG
  • 200200Z 07006KT 1500 BR OVC001 13/13 Q1023 R88/19//95 NOSIG
  • 200130Z 07006KT 0800 R08R/1300 R26L/1900U R08L/1800U R26R/P2000 FG OVC001 13/13 Q1023 R88/19//95 NOSIG

TAF TAF LROP
Valid from the 20 at 00:00 until the 21 at 00:00 UTC


192300Z 2000/2024 07010KT 1500 BR BKN002 OVC010
TEMPO 2000/2005 0600 -DZ FG BKN001 OVC005
BECMG 2006/2008 3000 BKN010
BECMG 2009/2011 9999 NSW BKN020
TEMPO 2012/2018 08015G25KT
BECMG 2018/2020 5000 -RA BKN010 OVC020
BECMG 2021/2023 3000 RA BKN005 OVC015



MET'MAP, your aeronautical weather chart ! - Copyright ORBIFLY December 2007 - Disclaimer

ORBIFLY MET'MAP TEAM :

Programming & Development : Alexandra Zaïnal
Concept & Development : Baudouin d'Aumeries
Co-Development & Prog : Marc-Olivier Méhu
Technical & hardware support : Manuel Goepfert

Contact : metmap@orbifly.com




SOURCES & CREDITS :

   NOAA